Big Bear Station Historical Data
Daily Summary for June 1, 2019 Units:  English    Metric   Both
Next Day »
Daily Weekly Monthly Yearly Custom
  High: Low: Average:
Temperature: 67.6 °F 36.9 °F 49.2 °F
Dew Point: 54.3 °F 35.3 °F 41.8 °F
Humidity: 97% 40% 79%
Wind Speed: 6.8mph 0mph 1.1mph
Wind Gust: -999mph - -
Wind- - WNW
Pressure: 23.42 in 23.37 in -
Precipitation: 0.24 in    
Historical Graphs
 
 
Tabular Data for June 1, 2019
Time Temperature Dew Point Pressure Wind Wind Speed Wind Gust Humidity Rainfall Rate (Hourly)
00:06 43 °F 38.2 °F 23.42 in Calm   -999 mph 83% 0.00 in
00:21 42.6 °F 38.4 °F 23.42 in Calm   -999 mph 85% 0.00 in
00:37 42.3 °F 38.1 °F 23.42 in Calm   -999 mph 85% 0.00 in
00:52 41.9 °F 38 °F 23.42 in Calm   -999 mph 86% 0.00 in
01:07 41.7 °F 38.1 °F 23.41 in Calm   -999 mph 87% 0.00 in
01:22 41.4 °F 37.8 °F 23.41 in Calm   -999 mph 87% 0.00 in
01:37 41 °F 37.7 °F 23.41 in Calm   -999 mph 88% 0.00 in
01:53 41 °F 37.7 °F 23.40 in Calm   -999 mph 88% 0.00 in
02:08 40.5 °F 37.5 °F 23.40 in Calm   -999 mph 89% 0.00 in
02:23 40.1 °F 37.1 °F 23.40 in Calm   -999 mph 89% 0.00 in
02:38 39.6 °F 36.9 °F 23.40 in Calm   -999 mph 90% 0.00 in
02:54 39.6 °F 37.2 °F 23.40 in Calm   -999 mph 91% 0.00 in
03:09 39.4 °F 37.3 °F 23.40 in Calm   -999 mph 92% 0.00 in
03:24 39 °F 36.9 °F 23.40 in Calm   -999 mph 92% 0.00 in
03:39 39 °F 37.1 °F 23.40 in Calm   -999 mph 93% 0.00 in
03:54 38.5 °F 36.9 °F 23.40 in Calm   -999 mph 94% 0.00 in
04:10 38.3 °F 36.7 °F 23.39 in Calm   -999 mph 94% 0.00 in
04:25 37.9 °F 36.3 °F 23.39 in Calm   -999 mph 94% 0.00 in
04:40 37.9 °F 36.3 °F 23.39 in Calm   -999 mph 94% 0.00 in
04:55 37.6 °F 36 °F 23.39 in Calm   -999 mph 94% 0.00 in
05:10 37.2 °F 35.6 °F 23.40 in Calm   -999 mph 94% 0.00 in
05:26 37.4 °F 35.8 °F 23.40 in Calm   -999 mph 94% 0.00 in
05:41 36.9 °F 35.3 °F 23.40 in Calm   -999 mph 94% 0.00 in
05:56 37 °F 35.4 °F 23.40 in Calm   -999 mph 94% 0.00 in
06:11 37 °F 35.4 °F 23.40 in Calm   -999 mph 94% 0.00 in
06:26 37.2 °F 35.6 °F 23.40 in Calm   -999 mph 94% 0.00 in
06:42 37.2 °F 35.6 °F 23.40 in Calm   -999 mph 94% 0.00 in
06:57 37.8 °F 36.5 °F 23.40 in Calm   -999 mph 95% 0.00 in
07:12 39.2 °F 37.9 °F 23.40 in Calm   -999 mph 95% 0.00 in
07:27 39.6 °F 38.3 °F 23.40 in Calm   -999 mph 95% 0.00 in
07:42 41.2 °F 39.9 °F 23.40 in Calm   -999 mph 95% 0.00 in
07:58 43 °F 40.6 °F 23.40 in Calm   -999 mph 91% 0.00 in
08:13 44.4 °F 41.1 °F 23.40 in Calm   -999 mph 88% 0.00 in
08:28 46.2 °F 39.7 °F 23.41 in Calm   -999 mph 78% 0.00 in
08:43 49.1 °F 39.4 °F 23.41 in NW 3.2 mph -999 mph 69% 0.00 in
08:58 51.3 °F 39.9 °F 23.41 in NW 2.2 mph -999 mph 65% 0.00 in
09:14 53.2 °F 37.9 °F 23.41 in West 4.2 mph -999 mph 56% 0.00 in
09:29 55.4 °F 35.5 °F 23.41 in NW 2.7 mph -999 mph 47% 0.00 in
09:45 56.7 °F 38.3 °F 23.41 in NW 3.2 mph -999 mph 50% 0.00 in
10:00 57 °F 37.5 °F 23.41 in NW 2.2 mph -999 mph 48% 0.00 in
10:15 57.2 °F 39.2 °F 23.41 in Calm   -999 mph 51% 0.00 in
10:30 57.9 °F 39.4 °F 23.41 in Calm   -999 mph 50% 0.00 in
10:46 58.8 °F 37.5 °F 23.41 in WNW 3.2 mph -999 mph 45% 0.00 in
11:01 59.7 °F 38.3 °F 23.42 in NNW 2.7 mph -999 mph 45% 0.00 in
11:16 62.1 °F 37.5 °F 23.42 in Calm   -999 mph 40% 0.00 in
11:31 63.1 °F 40.8 °F 23.42 in NNW 3.7 mph -999 mph 44% 0.00 in
11:46 61.7 °F 41.3 °F 23.42 in WNW 3.7 mph -999 mph 47% 0.00 in
12:02 64.9 °F 41.9 °F 23.42 in NW 3.7 mph -999 mph 43% 0.00 in
12:17 63.7 °F 42 °F 23.42 in NNW 3.7 mph -999 mph 45% 0.00 in
12:32 60.6 °F 40.8 °F 23.42 in NNW 1.7 mph -999 mph 48% 0.00 in
12:47 65.1 °F 44.4 °F 23.42 in NNW 4.7 mph -999 mph 47% 0.00 in
13:03 66.7 °F 44.1 °F 23.42 in WNW 6.8 mph -999 mph 44% 0.00 in
13:18 67.6 °F 43.7 °F 23.41 in WNW 4.7 mph -999 mph 42% 0.00 in
13:33 64 °F 43.4 °F 23.41 in NNW 3.7 mph -999 mph 47% 0.00 in
13:48 62.1 °F 43.2 °F 23.41 in NNW 2.7 mph -999 mph 50% 0.00 in
14:04 60.4 °F 45.6 °F 23.41 in NNW 3.7 mph -999 mph 58% 0.00 in
14:19 59.7 °F 44.9 °F 23.41 in NNW 3.7 mph -999 mph 58% 0.00 in
14:35 61.3 °F 45.5 °F 23.40 in WNW 2.2 mph -999 mph 56% 0.00 in
14:50 62.8 °F 46.4 °F 23.40 in WNW 4.7 mph -999 mph 55% 0.00 in
15:06 59.2 °F 47.8 °F 23.40 in ENE 3.2 mph -999 mph 66% 0.00 in
15:21 54.9 °F 49.2 °F 23.40 in Calm   -999 mph 81% 0.00 in
15:36 50.7 °F 47.6 °F 23.40 in SSE 2.2 mph -999 mph 89% 0.00 in
15:51 50.7 °F 47.9 °F 23.40 in ESE 2.2 mph -999 mph 90% 0.00 in
16:06 52.2 °F 48.8 °F 23.39 in Calm   -999 mph 88% 0.00 in
16:22 54.5 °F 51 °F 23.39 in Calm   -999 mph 88% 0.00 in
16:37 57.6 °F 52.8 °F 23.38 in NNW 2.7 mph -999 mph 84% 0.00 in
16:52 62.6 °F 53.4 °F 23.38 in Calm   -999 mph 72% 0.00 in
17:08 65.5 °F 54.3 °F 23.38 in WNW 1.7 mph -999 mph 67% 0.00 in
17:23 63.5 °F 53.5 °F 23.38 in North 3.7 mph -999 mph 70% 0.00 in
17:39 63.1 °F 52 °F 23.38 in SE 3.7 mph -999 mph 67% 0.00 in
17:54 58.1 °F 49.1 °F 23.37 in NNW 3.2 mph -999 mph 72% 0.00 in
18:09 56.7 °F 48.5 °F 23.37 in Calm   -999 mph 74% 0.00 in
18:24 56.1 °F 47.2 °F 23.38 in NNW 1.1 mph -999 mph 72% 0.00 in
18:39 54.9 °F 47.8 °F 23.38 in NW 4.2 mph -999 mph 77% 0.00 in
18:55 50.4 °F 45.7 °F 23.40 in Calm   -999 mph 84% 0.00 in
19:10 47.5 °F 45 °F 23.40 in South 3.7 mph -999 mph 91% 0.00 in
19:25 47.7 °F 45.5 °F 23.39 in Calm   -999 mph 92% 0.00 in
19:41 47.7 °F 45.2 °F 23.40 in Calm   -999 mph 91% 0.00 in
19:56 47.5 °F 45.3 °F 23.40 in Calm   -999 mph 92% 0.00 in
20:11 47.3 °F 45.1 °F 23.40 in Calm   -999 mph 92% 0.00 in
20:26 46.4 °F 44.5 °F 23.40 in Calm   -999 mph 93% 0.00 in
20:41 46.2 °F 44.8 °F 23.40 in Calm   -999 mph 95% 0.00 in
20:57 45.7 °F 44.3 °F 23.40 in Calm   -999 mph 95% 0.00 in
21:12 45.9 °F 44.3 °F 23.40 in Calm   -999 mph 94% 0.00 in
21:27 45.7 °F 44.6 °F 23.41 in Calm   -999 mph 96% 0.00 in
21:42 45.3 °F 44.2 °F 23.42 in Calm   -999 mph 96% 0.00 in
21:58 45.1 °F 44 °F 23.42 in Calm   -999 mph 96% 0.00 in
22:13 44.8 °F 44 °F 23.42 in Calm   -999 mph 97% 0.00 in
22:28 44.2 °F 43.4 °F 23.42 in Calm   -999 mph 97% 0.00 in
22:43 44.1 °F 43 °F 23.42 in Calm   -999 mph 96% 0.00 in
22:58 43.7 °F 42.6 °F 23.42 in Calm   -999 mph 96% 0.00 in
23:14 43.2 °F 42.1 °F 23.42 in Calm   -999 mph 96% 0.00 in
23:29 43 °F 41.9 °F 23.42 in Calm   -999 mph 96% 0.00 in
23:44 42.8 °F 42 °F 23.42 in Calm   -999 mph 97% 0.00 in
23:59 42.6 °F 41.8 °F 23.42 in Calm   -999 mph 97% 0.00 in
Big Bear CA Weather